sensor_id;sensor_type;location;lat;lon;timestamp;pressure;altitude;pressure_sealevel;temperature;humidity
54920;BME280;63804;53.120;8.764;2024-01-30T00:00:30;102846.56;;;6.82;75.87
54920;BME280;63804;53.120;8.764;2024-01-30T00:03:01;102845.78;;;6.80;75.68
54920;BME280;63804;53.120;8.764;2024-01-30T00:05:38;102843.94;;;6.82;75.81
54920;BME280;63804;53.120;8.764;2024-01-30T00:08:08;102851.84;;;7.18;74.59
54920;BME280;63804;53.120;8.764;2024-01-30T00:10:39;102841.91;;;7.28;73.67
54920;BME280;63804;53.120;8.764;2024-01-30T00:13:10;102847.84;;;7.36;73.74
54920;BME280;63804;53.120;8.764;2024-01-30T00:15:41;102845.59;;;7.55;73.02
54920;BME280;63804;53.120;8.764;2024-01-30T00:18:12;102840.09;;;7.64;72.56
54920;BME280;63804;53.120;8.764;2024-01-30T00:20:43;102845.16;;;7.70;72.25
54920;BME280;63804;53.120;8.764;2024-01-30T00:23:13;102842.44;;;7.73;72.03
54920;BME280;63804;53.120;8.764;2024-01-30T00:25:44;102838.88;;;7.76;71.69
54920;BME280;63804;53.120;8.764;2024-01-30T00:28:15;102836.16;;;7.79;71.73
54920;BME280;63804;53.120;8.764;2024-01-30T00:30:45;102839.56;;;7.82;71.55
54920;BME280;63804;53.120;8.764;2024-01-30T00:33:16;102839.69;;;7.78;71.55
54920;BME280;63804;53.120;8.764;2024-01-30T00:35:47;102835.06;;;7.86;70.95
54920;BME280;63804;53.120;8.764;2024-01-30T00:38:17;102836.81;;;7.86;71.14
54920;BME280;63804;53.120;8.764;2024-01-30T00:40:48;102840.22;;;7.91;70.86
54920;BME280;63804;53.120;8.764;2024-01-30T00:43:18;102836.66;;;7.92;70.71
54920;BME280;63804;53.120;8.764;2024-01-30T00:45:50;102838.38;;;7.93;70.41
54920;BME280;63804;53.120;8.764;2024-01-30T00:48:22;102833.19;;;7.90;70.72
54920;BME280;63804;53.120;8.764;2024-01-30T00:50:52;102826.31;;;7.84;70.51
54920;BME280;63804;53.120;8.764;2024-01-30T00:53:23;102818.31;;;7.87;70.70
54920;BME280;63804;53.120;8.764;2024-01-30T00:55:54;102822.63;;;7.90;70.60
54920;BME280;63804;53.120;8.764;2024-01-30T00:58:24;102822.81;;;7.84;70.74
54920;BME280;63804;53.120;8.764;2024-01-30T01:00:55;102818.34;;;7.86;70.61
54920;BME280;63804;53.120;8.764;2024-01-30T01:03:26;102810.34;;;7.89;70.42
54920;BME280;63804;53.120;8.764;2024-01-30T01:05:56;102820.97;;;7.87;70.59
54920;BME280;63804;53.120;8.764;2024-01-30T01:08:27;102812.97;;;7.90;70.49
54920;BME280;63804;53.120;8.764;2024-01-30T01:10:57;102810.28;;;7.92;70.29
54920;BME280;63804;53.120;8.764;2024-01-30T01:13:31;102808.47;;;7.94;70.55
54920;BME280;63804;53.120;8.764;2024-01-30T01:16:01;102805.69;;;7.98;70.22
54920;BME280;63804;53.120;8.764;2024-01-30T01:18:39;102808.97;;;8.06;70.37
54920;BME280;63804;53.120;8.764;2024-01-30T01:21:09;102802.91;;;8.03;70.39
54920;BME280;63804;53.120;8.764;2024-01-30T01:23:42;102806.56;;;7.97;70.55
54920;BME280;63804;53.120;8.764;2024-01-30T01:26:12;102804.13;;;7.91;70.80
54920;BME280;63804;53.120;8.764;2024-01-30T01:28:43;102797.03;;;7.93;70.71
54920;BME280;63804;53.120;8.764;2024-01-30T01:31:14;102794.22;;;7.99;70.41
54920;BME280;63804;53.120;8.764;2024-01-30T01:33:45;102784.59;;;7.97;70.27
54920;BME280;63804;53.120;8.764;2024-01-30T01:36:16;102785.63;;;7.93;70.67
54920;BME280;63804;53.120;8.764;2024-01-30T01:38:46;102789.09;;;7.95;70.59
54920;BME280;63804;53.120;8.764;2024-01-30T01:41:17;102781.97;;;7.97;70.79
54920;BME280;63804;53.120;8.764;2024-01-30T01:43:47;102774.91;;;7.97;70.53
54920;BME280;63804;53.120;8.764;2024-01-30T01:46:18;102779.69;;;7.86;71.06
54920;BME280;63804;53.120;8.764;2024-01-30T01:48:49;102792.88;;;7.86;71.06
54920;BME280;63804;53.120;8.764;2024-01-30T01:51:20;102782.31;;;7.86;71.06
54920;BME280;63804;53.120;8.764;2024-01-30T01:53:53;102789.88;;;7.97;70.51
54920;BME280;63804;53.120;8.764;2024-01-30T01:56:28;102782.25;;;7.88;70.73
54920;BME280;63804;53.120;8.764;2024-01-30T01:59:07;102780.78;;;7.79;71.08
54920;BME280;63804;53.120;8.764;2024-01-30T02:01:44;102784.28;;;7.78;71.06
54920;BME280;63804;53.120;8.764;2024-01-30T02:04:16;102783.50;;;7.76;71.23
54920;BME280;63804;53.120;8.764;2024-01-30T02:06:46;102780.94;;;7.73;71.19
54920;BME280;63804;53.120;8.764;2024-01-30T02:09:17;102772.22;;;7.71;71.53
54920;BME280;63804;53.120;8.764;2024-01-30T02:11:48;102773.97;;;7.70;71.85
54920;BME280;63804;53.120;8.764;2024-01-30T02:14:19;102783.84;;;7.64;71.92
54920;BME280;63804;53.120;8.764;2024-01-30T02:16:49;102781.09;;;7.67;71.86
54920;BME280;63804;53.120;8.764;2024-01-30T02:19:20;102773.41;;;7.59;72.32
54920;BME280;63804;53.120;8.764;2024-01-30T02:21:51;102775.81;;;7.67;72.24
54920;BME280;63804;53.120;8.764;2024-01-30T02:24:22;102762.69;;;7.65;72.09
54920;BME280;63804;53.120;8.764;2024-01-30T02:26:52;102763.63;;;7.64;72.44
54920;BME280;63804;53.120;8.764;2024-01-30T02:29:23;102750.47;;;7.63;72.30
54920;BME280;63804;53.120;8.764;2024-01-30T02:31:54;102749.56;;;7.64;72.61
54920;BME280;63804;53.120;8.764;2024-01-30T02:34:24;102751.34;;;7.63;72.85
54920;BME280;63804;53.120;8.764;2024-01-30T02:36:55;102745.53;;;7.52;73.30
54920;BME280;63804;53.120;8.764;2024-01-30T02:39:25;102744.47;;;7.57;73.22
54920;BME280;63804;53.120;8.764;2024-01-30T02:41:56;102737.63;;;7.52;73.17
54920;BME280;63804;53.120;8.764;2024-01-30T02:44:28;102739.91;;;7.63;73.21
54920;BME280;63804;53.120;8.764;2024-01-30T02:46:59;102739.75;;;7.69;72.97
54920;BME280;63804;53.120;8.764;2024-01-30T02:49:37;102732.91;;;7.62;73.20
54920;BME280;63804;53.120;8.764;2024-01-30T02:52:07;102739.97;;;7.61;73.45
54920;BME280;63804;53.120;8.764;2024-01-30T02:54:41;102729.69;;;7.52;74.06
54920;BME280;63804;53.120;8.764;2024-01-30T02:57:12;102734.00;;;7.54;74.13
54920;BME280;63804;53.120;8.764;2024-01-30T02:59:43;102730.13;;;7.68;73.58
54920;BME280;63804;53.120;8.764;2024-01-30T03:02:13;102723.91;;;7.69;73.64
54920;BME280;63804;53.120;8.764;2024-01-30T03:04:44;102704.13;;;7.55;73.56
54920;BME280;63804;53.120;8.764;2024-01-30T03:07:15;102728.25;;;7.71;73.73
54920;BME280;63804;53.120;8.764;2024-01-30T03:09:46;102727.25;;;7.75;73.79
54920;BME280;63804;53.120;8.764;2024-01-30T03:12:16;102724.16;;;7.61;74.07
54920;BME280;63804;53.120;8.764;2024-01-30T03:14:47;102722.50;;;7.57;74.16
54920;BME280;63804;53.120;8.764;2024-01-30T03:17:17;102718.72;;;7.66;73.85
54920;BME280;63804;53.120;8.764;2024-01-30T03:19:48;102713.59;;;7.61;73.96
54920;BME280;63804;53.120;8.764;2024-01-30T03:22:19;102713.97;;;7.49;74.45
54920;BME280;63804;53.120;8.764;2024-01-30T03:24:49;102713.78;;;7.55;74.21
54920;BME280;63804;53.120;8.764;2024-01-30T03:27:20;102706.78;;;7.54;74.18
54920;BME280;63804;53.120;8.764;2024-01-30T03:29:50;102704.28;;;7.49;74.60
54920;BME280;63804;53.120;8.764;2024-01-30T03:32:21;102706.84;;;7.52;74.54
54920;BME280;63804;53.120;8.764;2024-01-30T03:34:52;102712.13;;;7.51;74.49
54920;BME280;63804;53.120;8.764;2024-01-30T03:37:22;102702.34;;;7.56;74.44
54920;BME280;63804;53.120;8.764;2024-01-30T03:39:53;102704.84;;;7.59;74.43
54920;BME280;63804;53.120;8.764;2024-01-30T03:42:24;102706.59;;;7.60;74.34
54920;BME280;63804;53.120;8.764;2024-01-30T03:44:54;102704.63;;;7.67;74.38
54920;BME280;63804;53.120;8.764;2024-01-30T03:47:25;102696.06;;;7.60;74.59
54920;BME280;63804;53.120;8.764;2024-01-30T03:49:55;102692.34;;;7.67;74.61
54920;BME280;63804;53.120;8.764;2024-01-30T03:52:26;102682.91;;;7.58;74.74
54920;BME280;63804;53.120;8.764;2024-01-30T03:54:57;102694.53;;;7.51;75.04
54920;BME280;63804;53.120;8.764;2024-01-30T03:57:29;102687.53;;;7.52;75.12
54920;BME280;63804;53.120;8.764;2024-01-30T04:00:00;102695.66;;;7.44;75.45
54920;BME280;63804;53.120;8.764;2024-01-30T04:02:39;102687.59;;;7.49;75.55
54920;BME280;63804;53.120;8.764;2024-01-30T04:05:10;102698.88;;;7.54;75.23
54920;BME280;63804;53.120;8.764;2024-01-30T04:07:43;102693.56;;;7.55;75.31
54920;BME280;63804;53.120;8.764;2024-01-30T04:10:14;102692.38;;;7.66;75.16
54920;BME280;63804;53.120;8.764;2024-01-30T04:12:43;102691.34;;;7.71;74.99
54920;BME280;63804;53.120;8.764;2024-01-30T04:15:14;102690.41;;;7.72;74.99
54920;BME280;63804;53.120;8.764;2024-01-30T04:17:44;102687.69;;;7.75;75.01
54920;BME280;63804;53.120;8.764;2024-01-30T04:20:15;102692.91;;;7.77;75.00
54920;BME280;63804;53.120;8.764;2024-01-30T04:22:47;102688.50;;;7.77;74.91
54920;BME280;63804;53.120;8.764;2024-01-30T04:25:17;102691.34;;;7.71;75.40
54920;BME280;63804;53.120;8.764;2024-01-30T04:27:46;102686.91;;;7.72;75.25
54920;BME280;63804;53.120;8.764;2024-01-30T04:30:16;102684.31;;;7.70;75.38
54920;BME280;63804;53.120;8.764;2024-01-30T04:32:47;102679.00;;;7.72;75.41
54920;BME280;63804;53.120;8.764;2024-01-30T04:35:17;102680.16;;;7.63;75.28
54920;BME280;63804;53.120;8.764;2024-01-30T04:37:48;102682.81;;;7.62;75.71
54920;BME280;63804;53.120;8.764;2024-01-30T04:40:20;102676.50;;;7.67;75.74
54920;BME280;63804;53.120;8.764;2024-01-30T04:42:54;102676.47;;;7.69;75.62
54920;BME280;63804;53.120;8.764;2024-01-30T04:45:24;102677.16;;;7.74;75.46
54920;BME280;63804;53.120;8.764;2024-01-30T04:47:55;102674.75;;;7.66;75.51
54920;BME280;63804;53.120;8.764;2024-01-30T04:50:27;102674.75;;;7.66;75.73
54920;BME280;63804;53.120;8.764;2024-01-30T04:52:57;102672.28;;;7.62;75.73
54920;BME280;63804;53.120;8.764;2024-01-30T04:55:30;102673.97;;;7.64;75.73
54920;BME280;63804;53.120;8.764;2024-01-30T04:58:01;102669.63;;;7.63;75.70
54920;BME280;63804;53.120;8.764;2024-01-30T05:00:38;102670.31;;;7.68;75.84
54920;BME280;63804;53.120;8.764;2024-01-30T05:03:08;102665.28;;;7.61;75.77
54920;BME280;63804;53.120;8.764;2024-01-30T05:05:41;102664.38;;;7.62;75.93
54920;BME280;63804;53.120;8.764;2024-01-30T05:08:12;102665.00;;;7.70;75.59
54920;BME280;63804;53.120;8.764;2024-01-30T05:10:43;102664.03;;;7.72;75.78
54920;BME280;63804;53.120;8.764;2024-01-30T05:13:13;102660.00;;;7.61;76.02
54920;BME280;63804;53.120;8.764;2024-01-30T05:15:44;102665.31;;;7.59;76.18
54920;BME280;63804;53.120;8.764;2024-01-30T05:18:14;102656.84;;;7.49;76.31
54920;BME280;63804;53.120;8.764;2024-01-30T05:20:45;102654.19;;;7.49;76.47
54920;BME280;63804;53.120;8.764;2024-01-30T05:23:16;102656.69;;;7.54;76.41
54920;BME280;63804;53.120;8.764;2024-01-30T05:25:46;102654.81;;;7.57;76.19
54920;BME280;63804;53.120;8.764;2024-01-30T05:28:17;102659.09;;;7.62;76.09
54920;BME280;63804;53.120;8.764;2024-01-30T05:30:47;102659.94;;;7.62;76.23
54920;BME280;63804;53.120;8.764;2024-01-30T05:33:18;102655.69;;;7.58;76.58
54920;BME280;63804;53.120;8.764;2024-01-30T05:35:48;102649.47;;;7.61;76.41
54920;BME280;63804;53.120;8.764;2024-01-30T05:38:19;102648.75;;;7.55;76.50
54920;BME280;63804;53.120;8.764;2024-01-30T05:40:49;102646.06;;;7.57;76.65
54920;BME280;63804;53.120;8.764;2024-01-30T05:43:20;102652.13;;;7.59;76.66
54920;BME280;63804;53.120;8.764;2024-01-30T05:45:51;102653.72;;;7.65;76.38
54920;BME280;63804;53.120;8.764;2024-01-30T05:48:22;102647.53;;;7.66;76.22
54920;BME280;63804;53.120;8.764;2024-01-30T05:50:52;102650.03;;;7.70;76.03
54920;BME280;63804;53.120;8.764;2024-01-30T05:53:23;102646.81;;;7.61;76.70
54920;BME280;63804;53.120;8.764;2024-01-30T05:55:53;102646.84;;;7.59;76.67
54920;BME280;63804;53.120;8.764;2024-01-30T05:58:24;102650.47;;;7.56;77.16
54920;BME280;63804;53.120;8.764;2024-01-30T06:00:55;102654.81;;;7.57;76.81
54920;BME280;63804;53.120;8.764;2024-01-30T06:03:25;102645.97;;;7.60;76.93
54920;BME280;63804;53.120;8.764;2024-01-30T06:05:56;102653.81;;;7.62;76.91
54920;BME280;63804;53.120;8.764;2024-01-30T06:08:28;102659.88;;;7.65;76.92
54920;BME280;63804;53.120;8.764;2024-01-30T06:10:59;102668.38;;;7.75;76.40
54920;BME280;63804;53.120;8.764;2024-01-30T06:13:37;102665.00;;;7.70;76.85
54920;BME280;63804;53.120;8.764;2024-01-30T06:16:10;102664.03;;;7.72;76.60
54920;BME280;63804;53.120;8.764;2024-01-30T06:18:44;102659.72;;;7.70;76.64
54920;BME280;63804;53.120;8.764;2024-01-30T06:21:14;102659.81;;;7.67;76.68
54920;BME280;63804;53.120;8.764;2024-01-30T06:23:45;102656.94;;;7.74;76.40
54920;BME280;63804;53.120;8.764;2024-01-30T06:26:15;102651.78;;;7.71;76.41
54920;BME280;63804;53.120;8.764;2024-01-30T06:28:46;102644.50;;;7.78;76.41
54920;BME280;63804;53.120;8.764;2024-01-30T06:31:16;102647.06;;;7.81;76.54
54920;BME280;63804;53.120;8.764;2024-01-30T06:33:47;102643.63;;;7.79;76.38
54920;BME280;63804;53.120;8.764;2024-01-30T06:36:18;102654.34;;;7.73;76.74
54920;BME280;63804;53.120;8.764;2024-01-30T06:38:48;102647.16;;;7.78;76.49
54920;BME280;63804;53.120;8.764;2024-01-30T06:41:19;102646.25;;;7.79;76.76
54920;BME280;63804;53.120;8.764;2024-01-30T06:43:49;102640.25;;;7.74;76.95
54920;BME280;63804;53.120;8.764;2024-01-30T06:46:20;102642.78;;;7.78;76.78
54920;BME280;63804;53.120;8.764;2024-01-30T06:48:50;102639.00;;;7.86;76.55
54920;BME280;63804;53.120;8.764;2024-01-30T06:51:21;102637.13;;;7.89;76.07
54920;BME280;63804;53.120;8.764;2024-01-30T06:53:52;102641.28;;;7.96;76.02
54920;BME280;63804;53.120;8.764;2024-01-30T06:56:23;102637.94;;;7.91;76.37
54920;BME280;63804;53.120;8.764;2024-01-30T06:58:53;102637.00;;;7.94;75.97
54920;BME280;63804;53.120;8.764;2024-01-30T07:01:28;102637.94;;;7.91;76.06
54920;BME280;63804;53.120;8.764;2024-01-30T07:03:59;102636.94;;;7.95;75.93
54920;BME280;63804;53.120;8.764;2024-01-30T07:06:37;102637.03;;;7.92;76.18
54920;BME280;63804;53.120;8.764;2024-01-30T07:09:09;102631.66;;;7.95;75.95
54920;BME280;63804;53.120;8.764;2024-01-30T07:11:40;102635.31;;;7.91;76.10
54920;BME280;63804;53.120;8.764;2024-01-30T07:14:11;102646.25;;;7.79;76.74
54920;BME280;63804;53.120;8.764;2024-01-30T07:16:41;102636.56;;;7.79;76.55
54920;BME280;63804;53.120;8.764;2024-01-30T07:19:12;102642.53;;;7.86;76.46
54920;BME280;63804;53.120;8.764;2024-01-30T07:21:42;102640.75;;;7.87;76.44
54920;BME280;63804;53.120;8.764;2024-01-30T07:24:13;102633.69;;;7.87;76.32
54920;BME280;63804;53.120;8.764;2024-01-30T07:26:44;102638.97;;;7.87;76.41
54920;BME280;63804;53.120;8.764;2024-01-30T07:29:14;102638.81;;;7.92;76.24
54920;BME280;63804;53.120;8.764;2024-01-30T07:31:45;102629.97;;;7.93;75.92
54920;BME280;63804;53.120;8.764;2024-01-30T07:34:16;102631.16;;;7.84;76.11
54920;BME280;63804;53.120;8.764;2024-01-30T07:36:47;102621.28;;;7.91;76.15
54920;BME280;63804;53.120;8.764;2024-01-30T07:39:17;102613.06;;;7.72;76.68
54920;BME280;63804;53.120;8.764;2024-01-30T07:41:48;102618.78;;;7.58;77.02
54920;BME280;63804;53.120;8.764;2024-01-30T07:44:18;102619.22;;;7.72;76.71
54920;BME280;63804;53.120;8.764;2024-01-30T07:46:49;102608.50;;;7.77;76.50
54920;BME280;63804;53.120;8.764;2024-01-30T07:49:19;102605.44;;;7.91;76.04
54920;BME280;63804;53.120;8.764;2024-01-30T07:51:50;102611.34;;;7.97;75.80
54920;BME280;63804;53.120;8.764;2024-01-30T07:54:20;102613.00;;;8.01;76.04
54920;BME280;63804;53.120;8.764;2024-01-30T07:56:50;102611.34;;;7.97;75.78
54920;BME280;63804;53.120;8.764;2024-01-30T07:59:21;102603.50;;;7.96;76.23
54920;BME280;63804;53.120;8.764;2024-01-30T08:01:54;102612.88;;;8.04;75.80
54920;BME280;63804;53.120;8.764;2024-01-30T08:04:25;102609.22;;;8.09;75.97
54920;BME280;63804;53.120;8.764;2024-01-30T08:06:55;102619.59;;;8.15;76.00
54920;BME280;63804;53.120;8.764;2024-01-30T08:09:26;102619.66;;;8.13;75.59
54920;BME280;63804;53.120;8.764;2024-01-30T08:11:56;102620.28;;;8.20;75.49
54920;BME280;63804;53.120;8.764;2024-01-30T08:14:29;102624.69;;;8.21;75.70
54920;BME280;63804;53.120;8.764;2024-01-30T08:17:00;102625.88;;;8.11;75.89
54920;BME280;63804;53.120;8.764;2024-01-30T08:19:37;102624.97;;;8.12;76.05
54920;BME280;63804;53.120;8.764;2024-01-30T08:22:08;102616.78;;;8.19;75.74
54920;BME280;63804;53.120;8.764;2024-01-30T08:24:41;102614.06;;;8.22;75.36
54920;BME280;63804;53.120;8.764;2024-01-30T08:27:11;102614.13;;;8.21;75.47
54920;BME280;63804;53.120;8.764;2024-01-30T08:29:42;102621.72;;;8.30;75.28
54920;BME280;63804;53.120;8.764;2024-01-30T08:32:13;102620.66;;;8.36;75.18
54920;BME280;63804;53.120;8.764;2024-01-30T08:34:44;102631.09;;;8.40;75.07
54920;BME280;63804;53.120;8.764;2024-01-30T08:37:14;102629.19;;;8.44;74.90
54920;BME280;63804;53.120;8.764;2024-01-30T08:39:46;102624.16;;;8.36;75.05
54920;BME280;63804;53.120;8.764;2024-01-30T08:42:17;102626.66;;;8.41;74.95
54920;BME280;63804;53.120;8.764;2024-01-30T08:44:53;102615.94;;;8.45;74.92
54920;BME280;63804;53.120;8.764;2024-01-30T08:47:25;102626.28;;;8.51;74.98
54920;BME280;63804;53.120;8.764;2024-01-30T08:49:55;102612.75;;;8.61;74.60
54920;BME280;63804;53.120;8.764;2024-01-30T08:52:26;102597.00;;;8.58;74.36
54920;BME280;63804;53.120;8.764;2024-01-30T08:54:57;102612.59;;;8.65;74.56
54920;BME280;63804;53.120;8.764;2024-01-30T08:57:32;102609.19;;;8.62;74.78
54920;BME280;63804;53.120;8.764;2024-01-30T09:00:03;102596.69;;;8.67;74.45
54920;BME280;63804;53.120;8.764;2024-01-30T09:02:42;102598.22;;;8.74;74.58
54920;BME280;63804;53.120;8.764;2024-01-30T09:05:13;102602.50;;;8.76;74.36
54920;BME280;63804;53.120;8.764;2024-01-30T09:07:46;102598.22;;;8.74;74.56
54920;BME280;63804;53.120;8.764;2024-01-30T09:10:17;102604.97;;;8.81;74.40
54920;BME280;63804;53.120;8.764;2024-01-30T09:12:49;102598.72;;;8.84;74.50
54920;BME280;63804;53.120;8.764;2024-01-30T09:15:20;102600.28;;;8.89;74.05
54920;BME280;63804;53.120;8.764;2024-01-30T09:17:56;102601.34;;;8.84;74.55
54920;BME280;63804;53.120;8.764;2024-01-30T09:20:27;102614.88;;;8.99;73.94
54920;BME280;63804;53.120;8.764;2024-01-30T09:23:00;102611.56;;;8.93;74.18
54920;BME280;63804;53.120;8.764;2024-01-30T09:25:38;102614.28;;;8.91;74.52
54920;BME280;63804;53.120;8.764;2024-01-30T09:28:08;102613.78;;;8.82;74.60
54920;BME280;63804;53.120;8.764;2024-01-30T09:30:39;102609.94;;;8.90;74.55
54920;BME280;63804;53.120;8.764;2024-01-30T09:33:10;102613.91;;;9.02;74.64
54920;BME280;63804;53.120;8.764;2024-01-30T09:35:40;102607.34;;;9.12;74.15
54920;BME280;63804;53.120;8.764;2024-01-30T09:38:11;102609.63;;;9.21;73.92
54920;BME280;63804;53.120;8.764;2024-01-30T09:43:23;102597.53;;;9.16;74.16
54920;BME280;63804;53.120;8.764;2024-01-30T09:45:57;102593.47;;;9.29;74.13
54920;BME280;63804;53.120;8.764;2024-01-30T09:48:32;102598.25;;;9.43;73.49
54920;BME280;63804;53.120;8.764;2024-01-30T09:51:04;102613.84;;;9.49;73.37
54920;BME280;63804;53.120;8.764;2024-01-30T09:53:38;102608.38;;;9.53;73.64
54920;BME280;63804;53.120;8.764;2024-01-30T09:56:10;102610.34;;;9.48;73.58
54920;BME280;63804;53.120;8.764;2024-01-30T09:58:41;102605.13;;;9.47;74.11
54920;BME280;63804;53.120;8.764;2024-01-30T10:01:12;102608.56;;;9.49;73.77
54920;BME280;63804;53.120;8.764;2024-01-30T10:03:44;102611.72;;;9.59;73.73
54920;BME280;63804;53.120;8.764;2024-01-30T10:06:14;102613.06;;;9.69;73.22
54920;BME280;63804;53.120;8.764;2024-01-30T10:08:45;102610.59;;;9.64;73.66
54920;BME280;63804;53.120;8.764;2024-01-30T10:11:16;102615.66;;;9.70;73.59
54920;BME280;63804;53.120;8.764;2024-01-30T10:13:46;102605.28;;;9.66;73.94
54920;BME280;63804;53.120;8.764;2024-01-30T10:16:17;102603.69;;;9.62;74.13
54920;BME280;63804;53.120;8.764;2024-01-30T10:18:48;102608.50;;;9.72;73.99
54920;BME280;63804;53.120;8.764;2024-01-30T10:21:18;102618.97;;;9.75;73.88
54920;BME280;63804;53.120;8.764;2024-01-30T10:23:49;102613.63;;;9.77;73.99
54920;BME280;63804;53.120;8.764;2024-01-30T10:26:20;102611.97;;;9.74;74.01
54920;BME280;63804;53.120;8.764;2024-01-30T10:28:51;102616.13;;;9.80;74.17
54920;BME280;63804;53.120;8.764;2024-01-30T10:31:22;102613.06;;;9.91;73.85
54920;BME280;63804;53.120;8.764;2024-01-30T10:33:53;102605.84;;;9.94;73.82
54920;BME280;63804;53.120;8.764;2024-01-30T10:36:41;102601.50;;;9.93;74.00
54920;BME280;63804;53.120;8.764;2024-01-30T10:39:14;102604.81;;;9.98;74.01
54920;BME280;63804;53.120;8.764;2024-01-30T10:41:47;102602.66;;;10.08;73.83
54920;BME280;63804;53.120;8.764;2024-01-30T10:44:21;102596.91;;;10.19;73.54
54920;BME280;63804;53.120;8.764;2024-01-30T10:46:58;102601.31;;;10.18;73.58
54920;BME280;63804;53.120;8.764;2024-01-30T10:49:38;102597.47;;;10.27;73.31
54920;BME280;63804;53.120;8.764;2024-01-30T10:52:10;102599.91;;;10.32;73.23
54920;BME280;63804;53.120;8.764;2024-01-30T10:54:44;102602.34;;;10.36;73.39
54920;BME280;63804;53.120;8.764;2024-01-30T10:57:15;102596.34;;;10.33;73.52
54920;BME280;63804;53.120;8.764;2024-01-30T10:59:47;102594.22;;;10.41;73.52
54920;BME280;63804;53.120;8.764;2024-01-30T11:02:19;102591.31;;;10.47;73.31
54920;BME280;63804;53.120;8.764;2024-01-30T11:04:55;102589.59;;;10.46;73.59
54920;BME280;63804;53.120;8.764;2024-01-30T11:07:29;102580.50;;;10.52;73.41
54920;BME280;63804;53.120;8.764;2024-01-30T11:10:01;102570.91;;;10.49;73.33
54920;BME280;63804;53.120;8.764;2024-01-30T11:12:41;102579.72;;;10.49;73.73
54920;BME280;63804;53.120;8.764;2024-01-30T11:15:15;102595.28;;;10.57;73.29
54920;BME280;63804;53.120;8.764;2024-01-30T11:20:21;102586.72;;;10.71;73.40
54920;BME280;63804;53.120;8.764;2024-01-30T11:22:56;102582.84;;;10.78;73.05
54920;BME280;63804;53.120;8.764;2024-01-30T11:25:31;102581.06;;;10.79;73.17
54920;BME280;63804;53.120;8.764;2024-01-30T11:28:02;102585.28;;;10.83;73.43
54920;BME280;63804;53.120;8.764;2024-01-30T11:30:38;102588.78;;;10.83;73.77
54920;BME280;63804;53.120;8.764;2024-01-30T11:33:14;102590.31;;;10.89;73.52
54920;BME280;63804;53.120;8.764;2024-01-30T11:35:45;102586.53;;;10.94;73.22
54920;BME280;63804;53.120;8.764;2024-01-30T11:38:17;102584.47;;;11.01;73.01
54920;BME280;63804;53.120;8.764;2024-01-30T11:40:48;102574.50;;;11.06;72.79
54920;BME280;63804;53.120;8.764;2024-01-30T11:43:20;102571.91;;;11.05;72.83
54920;BME280;63804;53.120;8.764;2024-01-30T11:45:51;102560.72;;;10.98;73.19
54920;BME280;63804;53.120;8.764;2024-01-30T11:48:22;102563.72;;;10.90;73.56
54920;BME280;63804;53.120;8.764;2024-01-30T11:50:54;102568.31;;;10.87;73.34
54920;BME280;63804;53.120;8.764;2024-01-30T11:53:24;102575.50;;;10.85;74.00
54920;BME280;63804;53.120;8.764;2024-01-30T11:55:56;102569.03;;;10.90;73.66
54920;BME280;63804;53.120;8.764;2024-01-30T11:58:27;102568.69;;;10.98;73.65
54920;BME280;63804;53.120;8.764;2024-01-30T12:00:59;102566.88;;;10.98;73.59
54920;BME280;63804;53.120;8.764;2024-01-30T12:03:36;102576.13;;;10.90;73.92
54920;BME280;63804;53.120;8.764;2024-01-30T12:06:07;102578.72;;;10.91;73.81
54920;BME280;63804;53.120;8.764;2024-01-30T12:08:38;102575.72;;;10.99;73.80
54920;BME280;63804;53.120;8.764;2024-01-30T12:11:09;102574.66;;;11.03;73.78
54920;BME280;63804;53.120;8.764;2024-01-30T12:13:39;102578.94;;;11.06;73.56
54920;BME280;63804;53.120;8.764;2024-01-30T12:16:10;102575.06;;;11.13;73.50
54920;BME280;63804;53.120;8.764;2024-01-30T12:18:41;102581.91;;;11.18;73.48
54920;BME280;63804;53.120;8.764;2024-01-30T12:21:11;102582.88;;;11.16;73.70
54920;BME280;63804;53.120;8.764;2024-01-30T12:23:42;102569.84;;;11.11;73.60
54920;BME280;63804;53.120;8.764;2024-01-30T12:26:16;102578.72;;;11.10;73.72
54920;BME280;63804;53.120;8.764;2024-01-30T12:28:51;102583.03;;;11.13;74.00
54920;BME280;63804;53.120;8.764;2024-01-30T12:31:28;102581.00;;;11.18;74.05
54920;BME280;63804;53.120;8.764;2024-01-30T12:34:00;102580.69;;;11.26;73.71
54920;BME280;63804;53.120;8.764;2024-01-30T12:36:38;102579.78;;;11.25;73.89
54920;BME280;63804;53.120;8.764;2024-01-30T12:39:13;102586.88;;;11.25;74.42
54920;BME280;63804;53.120;8.764;2024-01-30T12:41:45;102575.06;;;11.13;74.64
54920;BME280;63804;53.120;8.764;2024-01-30T12:44:15;102573.84;;;11.20;74.54
54920;BME280;63804;53.120;8.764;2024-01-30T12:46:47;102568.41;;;11.23;74.48
54920;BME280;63804;53.120;8.764;2024-01-30T12:49:18;102567.84;;;11.16;74.73
54920;BME280;63804;53.120;8.764;2024-01-30T12:51:48;102560.88;;;11.14;75.05
54920;BME280;63804;53.120;8.764;2024-01-30T12:54:31;102562.25;;;11.22;74.89
54920;BME280;63804;53.120;8.764;2024-01-30T12:57:50;102565.41;;;11.12;75.45
54920;BME280;63804;53.120;8.764;2024-01-30T13:00:20;102558.94;;;11.17;75.02
54920;BME280;63804;53.120;8.764;2024-01-30T13:02:50;102561.41;;;11.22;75.19
54920;BME280;63804;53.120;8.764;2024-01-30T13:05:21;102565.44;;;11.29;75.20
54920;BME280;63804;53.120;8.764;2024-01-30T13:07:50;102565.69;;;11.25;75.33
54920;BME280;63804;53.120;8.764;2024-01-30T13:10:21;102562.25;;;11.22;75.72
54920;BME280;63804;53.120;8.764;2024-01-30T13:12:53;102565.44;;;11.29;75.39
54920;BME280;63804;53.120;8.764;2024-01-30T13:15:23;102558.28;;;11.31;75.61
54920;BME280;63804;53.120;8.764;2024-01-30T13:17:53;102557.66;;;11.26;76.22
54920;BME280;63804;53.120;8.764;2024-01-30T13:20:25;102548.78;;;11.27;76.08
54920;BME280;63804;53.120;8.764;2024-01-30T13:22:55;102555.72;;;11.30;76.12
54920;BME280;63804;53.120;8.764;2024-01-30T13:25:26;102555.91;;;11.25;76.66